Sao Domingos do Capim, Brazil
Current Conditions -  °F | °C
As of 11:00 AM on Friday 19 Dec 2014 (Local Time) from SBBE Reporting Station
Scattered Clouds Scattered Clouds  
Wind Chill: 88°   Ceiling: Unl
Heat Index: 94°   Visibility: 6mi
Dew Point: 72°   Wind: 14mph
Humidity: 58%   Direction: 70°ENE
Pressure: 29.85"   Gusts: NA
Location:  1.68°S, 47.78°W
Report Text: SBBE 191400Z 07012KT 9999 SCT027 31/22 Q1011
Loading
Personal Weather Stations






























Interactive Weather Map New forecast layout! Learn more

10-Day Weather Forecast

Advertisements
Track Severe Weather on mobile